Time;durP1;ratioP1;P1;durP2;ratioP2;P2;SDS_P1;SDS_P2;PMS_P1;PMS_P2;Temp;Humidity;BMP_temperature;BMP_pressure;BME280_temperature;BME280_humidity;BME280_pressure;Samples;Min_cycle;Max_cycle;Signal;HPM_P1;HPM_P2
2023/11/18 00:00:35;;;;;;;7.00;6.30;;;;;;;;;;5115339;28;20441;-56
2023/11/18 00:03:02;;;;;;;8.20;6.83;;;;;;;;;;5115260;28;20233;-56
2023/11/18 00:05:29;;;;;;;6.93;6.30;;;;;;;;;;5115197;28;20937;-57
2023/11/18 00:07:58;;;;;;;7.20;5.83;;;;;;;;;;5114941;28;20442;-56
2023/11/18 00:10:25;;;;;;;7.73;6.30;;;;;;;;;;5115358;28;20476;-57
2023/11/18 00:12:51;;;;;;;6.37;5.57;;;;;;;;;;5115150;27;20499;-56
2023/11/18 00:15:19;;;;;;;8.43;6.33;;;;;;;;;;5114904;28;20836;-56
2023/11/18 00:17:46;;;;;;;7.40;6.57;;;;;;;;;;5114936;28;20446;-57
2023/11/18 00:20:15;;;;;;;6.18;5.68;;;;;;;;;;5114844;28;20452;-56
2023/11/18 00:22:43;;;;;;;7.17;6.20;;;;;;;;;;5114767;28;20275;-55
2023/11/18 00:25:14;;;;;;;6.18;5.57;;;;;;;;;;5113627;28;21009;-56
2023/11/18 00:27:41;;;;;;;6.17;5.43;;;;;;;;;;5114824;28;20223;-52
2023/11/18 00:30:10;;;;;;;7.03;5.10;;;;;;;;;;5114813;27;20510;-52
2023/11/18 00:32:38;;;;;;;7.23;5.10;;;;;;;;;;5114574;28;20442;-56
2023/11/18 00:35:05;;;;;;;6.03;5.53;;;;;;;;;;5114397;28;20530;-56
2023/11/18 00:37:32;;;;;;;6.30;5.80;;;;;;;;;;5114595;28;20191;-56
2023/11/18 00:39:59;;;;;;;8.87;6.93;;;;;;;;;;5114535;28;20492;-56
2023/11/18 00:42:28;;;;;;;7.33;5.80;;;;;;;;;;5114493;28;20528;-56
2023/11/18 00:45:15;;;;;;;6.23;5.60;;;;;;;;;;5173205;27;20517;-57
2023/11/18 00:47:42;;;;;;;6.90;6.10;;;;;;;;;;5151929;27;20436;-56
2023/11/18 00:50:09;;;;;;;6.13;5.20;;;;;;;;;;5152268;27;20239;-57
2023/11/18 00:52:38;;;;;;;6.65;6.05;;;;;;;;;;5152206;27;20186;-56
2023/11/18 00:55:06;;;;;;;5.73;5.10;;;;;;;;;;5151951;27;20721;-55
2023/11/18 00:57:33;;;;;;;5.80;5.20;;;;;;;;;;5151792;27;20444;-56
2023/11/18 01:00:00;;;;;;;6.70;6.10;;;;;;;;;;5151790;27;20274;-56
2023/11/18 01:02:28;;;;;;;5.37;4.87;;;;;;;;;;5151990;27;20714;-56
2023/11/18 01:04:55;;;;;;;5.97;5.38;;;;;;;;;;5151764;27;20492;-55
2023/11/18 01:07:22;;;;;;;5.90;5.30;;;;;;;;;;5151847;27;20610;-56
2023/11/18 01:09:49;;;;;;;5.30;4.90;;;;;;;;;;5151634;27;20535;-56
2023/11/18 01:12:16;;;;;;;7.43;4.90;;;;;;;;;;5151627;27;20530;-52
2023/11/18 01:14:43;;;;;;;6.80;5.28;;;;;;;;;;5151497;27;20540;-56
2023/11/18 01:17:10;;;;;;;6.32;5.60;;;;;;;;;;5151617;27;20186;-54
2023/11/18 01:19:39;;;;;;;6.05;5.55;;;;;;;;;;5151526;27;20197;-56
2023/11/18 01:22:06;;;;;;;6.27;5.00;;;;;;;;;;5151443;27;20273;-56
2023/11/18 01:24:33;;;;;;;6.50;5.30;;;;;;;;;;5151269;27;20491;-56
2023/11/18 01:27:00;;;;;;;5.93;5.07;;;;;;;;;;5151287;27;20187;-57
2023/11/18 01:29:27;;;;;;;6.43;5.50;;;;;;;;;;5151458;27;20187;-57
2023/11/18 01:31:55;;;;;;;7.83;4.90;;;;;;;;;;5151324;27;20479;-57
2023/11/18 01:34:22;;;;;;;6.25;5.65;;;;;;;;;;5151266;27;20440;-56
2023/11/18 01:36:50;;;;;;;7.40;5.27;;;;;;;;;;5151125;27;20182;-56
2023/11/18 01:39:18;;;;;;;6.40;5.80;;;;;;;;;;5151031;27;20475;-56
2023/11/18 01:41:45;;;;;;;7.45;5.43;;;;;;;;;;5150937;27;20447;-57
2023/11/18 01:44:13;;;;;;;6.40;5.80;;;;;;;;;;5150806;27;20662;-56
2023/11/18 01:46:40;;;;;;;6.87;6.23;;;;;;;;;;5151023;27;20539;-57
2023/11/18 01:49:08;;;;;;;6.20;5.70;;;;;;;;;;5150941;27;20481;-56
2023/11/18 01:51:35;;;;;;;7.60;5.30;;;;;;;;;;5150857;27;20187;-56
2023/11/18 01:54:05;;;;;;;6.15;5.32;;;;;;;;;;5150764;27;20331;-58
2023/11/18 01:56:32;;;;;;;5.17;4.77;;;;;;;;;;5136250;27;20187;-57
2023/11/18 01:58:59;;;;;;;5.78;5.32;;;;;;;;;;5136996;27;20506;-55
2023/11/18 02:01:28;;;;;;;5.88;5.38;;;;;;;;;;5136971;27;20194;-56
2023/11/18 02:03:55;;;;;;;7.68;5.72;;;;;;;;;;5136839;27;20640;-56
2023/11/18 02:06:22;;;;;;;5.70;5.20;;;;;;;;;;5136610;27;20654;-57
2023/11/18 02:08:49;;;;;;;6.50;5.80;;;;;;;;;;5136561;27;20449;-57
2023/11/18 02:11:23;;;;;;;5.78;5.00;;;;;;;;;;5136859;27;20598;-56
2023/11/18 02:13:51;;;;;;;5.32;4.85;;;;;;;;;;5136491;27;20183;-56
2023/11/18 02:16:19;;;;;;;6.15;5.55;;;;;;;;;;5136460;27;20195;-56
2023/11/18 02:18:46;;;;;;;6.97;5.40;;;;;;;;;;5136377;27;20734;-57
2023/11/18 02:21:14;;;;;;;6.30;5.70;;;;;;;;;;5136438;27;20441;-56
2023/11/18 02:23:42;;;;;;;6.27;5.77;;;;;;;;;;5136545;27;20484;-56
2023/11/18 02:26:11;;;;;;;7.13;5.80;;;;;;;;;;5136469;27;20455;-56
2023/11/18 02:28:38;;;;;;;11.25;5.55;;;;;;;;;;5136275;27;20476;-56
2023/11/18 02:31:09;;;;;;;6.40;5.88;;;;;;;;;;5136317;27;20644;-56
2023/11/18 02:33:40;;;;;;;5.97;5.38;;;;;;;;;;5136259;27;20570;-57
2023/11/18 02:36:10;;;;;;;6.35;5.30;;;;;;;;;;5136459;27;20270;-56
2023/11/18 02:38:45;;;;;;;6.03;4.93;;;;;;;;;;5136285;27;20198;-57
2023/11/18 02:41:14;;;;;;;5.50;5.10;;;;;;;;;;5136146;27;20440;-56
2023/11/18 02:43:41;;;;;;;5.95;5.03;;;;;;;;;;5135772;27;20219;-56
2023/11/18 02:46:09;;;;;;;6.93;6.00;;;;;;;;;;5135866;27;20191;-56
2023/11/18 02:48:36;;;;;;;5.07;4.67;;;;;;;;;;5136034;27;20183;-56
2023/11/18 02:51:03;;;;;;;6.10;5.60;;;;;;;;;;5136079;27;20809;-57
2023/11/18 02:53:30;;;;;;;8.00;5.13;;;;;;;;;;5135891;27;20198;-57
2023/11/18 02:56:02;;;;;;;5.57;5.07;;;;;;;;;;5135630;27;20722;-57
2023/11/18 02:58:30;;;;;;;5.35;4.85;;;;;;;;;;5135743;27;20457;-57
2023/11/18 03:00:59;;;;;;;5.72;5.18;;;;;;;;;;5135553;27;20194;-57
2023/11/18 03:03:27;;;;;;;4.60;4.20;;;;;;;;;;5135517;27;20198;-57
2023/11/18 03:05:54;;;;;;;6.47;4.38;;;;;;;;;;5135481;27;20436;-57
2023/11/18 03:08:21;;;;;;;4.87;4.40;;;;;;;;;;5134822;27;20183;-54
2023/11/18 03:10:52;;;;;;;4.70;4.28;;;;;;;;;;5135506;27;20762;-57
2023/11/18 03:13:19;;;;;;;5.38;4.50;;;;;;;;;;5135369;27;20273;-58
2023/11/18 03:15:48;;;;;;;4.97;4.57;;;;;;;;;;5135576;27;20226;-58
2023/11/18 03:18:15;;;;;;;5.37;4.87;;;;;;;;;;5135210;27;20455;-56
2023/11/18 03:20:42;;;;;;;4.25;3.85;;;;;;;;;;5135379;27;20452;-56
2023/11/18 03:23:09;;;;;;;7.10;4.13;;;;;;;;;;5135298;27;20183;-57
2023/11/18 03:25:37;;;;;;;6.15;4.32;;;;;;;;;;5135100;27;20481;-57
2023/11/18 03:28:06;;;;;;;6.20;4.70;;;;;;;;;;5134993;27;20192;-55
2023/11/18 03:30:33;;;;;;;4.35;4.00;;;;;;;;;;5135263;27;20187;-56
2023/11/18 03:33:01;;;;;;;5.00;4.40;;;;;;;;;;5135142;27;20191;-57
2023/11/18 03:35:29;;;;;;;5.13;4.35;;;;;;;;;;5135111;27;20441;-56
2023/11/18 03:37:56;;;;;;;5.72;4.55;;;;;;;;;;5134942;27;20194;-55
2023/11/18 03:40:23;;;;;;;5.23;4.73;;;;;;;;;;5134893;27;20191;-57
2023/11/18 03:42:50;;;;;;;5.07;4.47;;;;;;;;;;5134849;27;20555;-57
2023/11/18 03:45:18;;;;;;;4.55;3.97;;;;;;;;;;5134740;27;20476;-57
2023/11/18 03:47:47;;;;;;;4.75;4.30;;;;;;;;;;5134730;27;20194;-56
2023/11/18 03:50:15;;;;;;;5.33;4.77;;;;;;;;;;5134783;27;20230;-56
2023/11/18 03:52:42;;;;;;;4.60;4.20;;;;;;;;;;5134687;27;20440;-53
2023/11/18 03:55:09;;;;;;;4.53;4.13;;;;;;;;;;5134501;27;20194;-54
2023/11/18 03:57:36;;;;;;;5.75;5.25;;;;;;;;;;5134725;27;20482;-57
2023/11/18 04:00:04;;;;;;;5.20;4.70;;;;;;;;;;5134654;27;20274;-57
2023/11/18 04:02:30;;;;;;;7.57;4.45;;;;;;;;;;5134533;27;20587;-58
2023/11/18 04:04:58;;;;;;;4.55;4.15;;;;;;;;;;5134410;27;20302;-57
2023/11/18 04:07:26;;;;;;;4.60;4.20;;;;;;;;;;5134422;27;20229;-57
2023/11/18 04:09:53;;;;;;;5.85;5.15;;;;;;;;;;5134267;27;20183;-57
2023/11/18 04:12:20;;;;;;;6.35;4.47;;;;;;;;;;5134491;27;20187;-57
2023/11/18 04:14:47;;;;;;;4.70;4.27;;;;;;;;;;5134396;27;20278;-57
2023/11/18 04:17:14;;;;;;;5.13;4.63;;;;;;;;;;5134125;27;20950;-57
2023/11/18 04:19:41;;;;;;;5.28;4.63;;;;;;;;;;5134018;27;20278;-57
2023/11/18 04:22:09;;;;;;;6.10;4.53;;;;;;;;;;5134070;27;20197;-57
2023/11/18 04:24:37;;;;;;;4.15;3.85;;;;;;;;;;5134255;27;20483;-57
2023/11/18 04:27:04;;;;;;;6.77;5.17;;;;;;;;;;5134308;27;20186;-58
2023/11/18 04:29:31;;;;;;;6.33;4.03;;;;;;;;;;5134058;27;20451;-57
2023/11/18 04:31:59;;;;;;;5.10;4.43;;;;;;;;;;5134116;27;20472;-57
2023/11/18 04:34:26;;;;;;;5.00;4.60;;;;;;;;;;5133992;27;20452;-58
2023/11/18 04:36:53;;;;;;;4.40;4.00;;;;;;;;;;5133950;27;20841;-57
2023/11/18 04:39:22;;;;;;;6.43;5.40;;;;;;;;;;5134015;27;20448;-57
2023/11/18 04:41:50;;;;;;;4.60;4.20;;;;;;;;;;5134085;27;20800;-57
2023/11/18 04:44:17;;;;;;;3.70;3.33;;;;;;;;;;5133734;28;20571;-57
2023/11/18 04:46:44;;;;;;;6.40;4.57;;;;;;;;;;5134299;28;20476;-57
2023/11/18 04:49:11;;;;;;;6.35;3.80;;;;;;;;;;5133794;28;20194;-57
2023/11/18 04:51:38;;;;;;;7.17;4.77;;;;;;;;;;5134057;28;20516;-57
2023/11/18 04:54:07;;;;;;;4.67;4.27;;;;;;;;;;5133974;28;20536;-56
2023/11/18 04:56:35;;;;;;;5.25;4.85;;;;;;;;;;5133855;28;20441;-57
2023/11/18 04:59:04;;;;;;;5.30;4.10;;;;;;;;;;5133628;28;20676;-57
2023/11/18 05:01:30;;;;;;;5.30;4.20;;;;;;;;;;5133684;28;20955;-57
2023/11/18 05:03:59;;;;;;;6.53;4.97;;;;;;;;;;5133580;28;20452;-57
2023/11/18 05:06:25;;;;;;;4.77;4.20;;;;;;;;;;5133916;28;20686;-57
2023/11/18 05:08:52;;;;;;;4.10;3.80;;;;;;;;;;5133680;28;20445;-57
2023/11/18 05:11:20;;;;;;;4.23;3.93;;;;;;;;;;5133709;28;20440;-57
2023/11/18 05:13:47;;;;;;;4.03;3.63;;;;;;;;;;5133614;28;20532;-57
2023/11/18 05:16:15;;;;;;;5.93;3.60;;;;;;;;;;5133504;28;20550;-58
2023/11/18 05:18:42;;;;;;;4.17;3.60;;;;;;;;;;5133773;28;20436;-57
2023/11/18 05:21:10;;;;;;;3.87;3.47;;;;;;;;;;5133693;28;20531;-57
2023/11/18 05:23:38;;;;;;;3.70;3.25;;;;;;;;;;5133712;28;20436;-57
2023/11/18 05:26:05;;;;;;;6.53;3.93;;;;;;;;;;5133520;28;20219;-57
2023/11/18 05:28:32;;;;;;;4.15;3.75;;;;;;;;;;5133491;28;20441;-57
2023/11/18 05:31:01;;;;;;;4.20;3.80;;;;;;;;;;5135936;27;20278;-57
2023/11/18 05:33:30;;;;;;;3.43;3.20;;;;;;;;;;5137578;27;20600;-57
2023/11/18 05:35:57;;;;;;;3.67;3.37;;;;;;;;;;5137470;27;20453;-57
2023/11/18 05:38:27;;;;;;;4.05;3.65;;;;;;;;;;5137315;27;20472;-57
2023/11/18 05:40:56;;;;;;;4.07;3.50;;;;;;;;;;5137352;27;20183;-57
2023/11/18 05:43:25;;;;;;;3.50;3.23;;;;;;;;;;5136914;27;20571;-57
2023/11/18 05:48:54;;;;;;;3.40;3.10;;;;;;;;;;5152206;27;20505;-57
2023/11/18 05:51:22;;;;;;;4.63;4.23;;;;;;;;;;5131219;28;20194;-57
2023/11/18 05:53:49;;;;;;;4.77;4.37;;;;;;;;;;5131276;28;20445;-57
2023/11/18 05:56:17;;;;;;;4.05;3.65;;;;;;;;;;5131503;28;20449;-57
2023/11/18 05:58:44;;;;;;;7.80;7.03;;;;;;;;;;5131255;28;20183;-58
2023/11/18 06:01:11;;;;;;;4.77;4.30;;;;;;;;;;5131287;28;20486;-57
2023/11/18 06:03:39;;;;;;;5.20;4.80;;;;;;;;;;5131241;27;20494;-57
2023/11/18 06:06:08;;;;;;;4.50;4.10;;;;;;;;;;5131048;28;20195;-57
2023/11/18 06:08:35;;;;;;;4.68;4.25;;;;;;;;;;5130712;28;21067;-57
2023/11/18 06:11:12;;;;;;;6.30;5.20;;;;;;;;;;5131178;28;20279;-57
2023/11/18 06:13:42;;;;;;;4.03;3.63;;;;;;;;;;5131074;28;20445;-57
2023/11/18 06:16:09;;;;;;;3.70;3.30;;;;;;;;;;5130940;28;20301;-57
2023/11/18 06:18:36;;;;;;;3.60;3.28;;;;;;;;;;5130836;28;20619;-57
2023/11/18 06:21:04;;;;;;;6.20;3.80;;;;;;;;;;5130637;28;20191;-57
2023/11/18 06:23:32;;;;;;;4.20;3.80;;;;;;;;;;5130900;28;20497;-58
2023/11/18 06:26:00;;;;;;;3.27;2.93;;;;;;;;;;5131058;28;20187;-57
2023/11/18 06:28:27;;;;;;;4.93;4.43;;;;;;;;;;5130592;28;20473;-57
2023/11/18 06:30:54;;;;;;;5.03;4.53;;;;;;;;;;5130540;28;20449;-57
2023/11/18 06:33:22;;;;;;;5.53;4.23;;;;;;;;;;5130457;28;20440;-58
2023/11/18 06:35:49;;;;;;;5.45;3.67;;;;;;;;;;5130671;28;20498;-57
2023/11/18 06:38:18;;;;;;;5.50;4.50;;;;;;;;;;5130507;28;20191;-58
2023/11/18 06:40:46;;;;;;;8.60;7.50;;;;;;;;;;5130510;28;20441;-57
2023/11/18 06:43:13;;;;;;;5.53;4.90;;;;;;;;;;5130452;28;20459;-57
2023/11/18 06:45:44;;;;;;;6.03;5.20;;;;;;;;;;5130288;28;20532;-57
2023/11/18 06:48:11;;;;;;;4.70;4.30;;;;;;;;;;5129883;27;20516;-57
2023/11/18 06:50:39;;;;;;;5.27;4.77;;;;;;;;;;5130339;28;20552;-57
2023/11/18 06:53:08;;;;;;;4.63;4.33;;;;;;;;;;5130197;28;20778;-57
2023/11/18 06:55:36;;;;;;;5.40;4.90;;;;;;;;;;5130060;28;20448;-57
2023/11/18 06:58:04;;;;;;;5.53;4.90;;;;;;;;;;5129040;28;20444;-57
2023/11/18 07:00:31;;;;;;;7.50;5.67;;;;;;;;;;5115957;28;20473;-57
2023/11/18 07:02:58;;;;;;;6.93;4.40;;;;;;;;;;5116187;28;20449;-57
2023/11/18 07:05:25;;;;;;;6.40;4.93;;;;;;;;;;5116613;28;20452;-57
2023/11/18 07:07:52;;;;;;;5.70;5.20;;;;;;;;;;5116072;28;20895;-57
2023/11/18 07:10:20;;;;;;;5.20;4.70;;;;;;;;;;5116214;28;20437;-57
2023/11/18 07:12:48;;;;;;;5.35;4.82;;;;;;;;;;5116073;28;20188;-58
2023/11/18 07:15:16;;;;;;;6.70;4.53;;;;;;;;;;5116292;28;20188;-57
2023/11/18 07:17:43;;;;;;;9.00;7.77;;;;;;;;;;5116185;28;20488;-57
2023/11/18 07:20:12;;;;;;;9.85;6.25;;;;;;;;;;5116115;28;20536;-58
2023/11/18 07:22:40;;;;;;;7.07;6.38;;;;;;;;;;5116037;28;20227;-57
2023/11/18 07:25:09;;;;;;;5.70;5.00;;;;;;;;;;5115875;28;20290;-57
2023/11/18 07:27:36;;;;;;;5.70;5.10;;;;;;;;;;5115621;28;20493;-59
2023/11/18 07:30:06;;;;;;;8.07;5.13;;;;;;;;;;5115912;28;20473;-59
2023/11/18 07:32:34;;;;;;;6.50;4.90;;;;;;;;;;5115899;28;20445;-58
2023/11/18 07:35:01;;;;;;;5.57;5.07;;;;;;;;;;5115592;28;20952;-58
2023/11/18 07:37:32;;;;;;;5.10;4.70;;;;;;;;;;5115510;28;20970;-58
2023/11/18 07:40:00;;;;;;;5.40;4.90;;;;;;;;;;5115590;28;20195;-56
2023/11/18 07:42:27;;;;;;;6.30;5.00;;;;;;;;;;5115719;28;20446;-58
2023/11/18 07:44:54;;;;;;;5.23;4.40;;;;;;;;;;5115703;28;20477;-57
2023/11/18 07:47:21;;;;;;;6.07;5.57;;;;;;;;;;5115233;28;20473;-58
2023/11/18 07:49:50;;;;;;;5.17;4.67;;;;;;;;;;5115492;28;20444;-58
2023/11/18 07:52:16;;;;;;;6.80;6.10;;;;;;;;;;5115379;28;20536;-58
2023/11/18 07:54:44;;;;;;;6.13;5.47;;;;;;;;;;5115119;28;20877;-58
2023/11/18 07:57:11;;;;;;;5.80;5.30;;;;;;;;;;5115354;28;20444;-58
2023/11/18 07:59:38;;;;;;;6.57;5.43;;;;;;;;;;5115136;28;20933;-59
2023/11/18 08:02:09;;;;;;;7.40;6.70;;;;;;;;;;5115282;28;20540;-58
2023/11/18 08:04:36;;;;;;;7.00;6.30;;;;;;;;;;5115183;28;20441;-58
2023/11/18 08:07:05;;;;;;;6.00;5.13;;;;;;;;;;5114959;28;20446;-58
2023/11/18 08:09:32;;;;;;;6.73;5.87;;;;;;;;;;5115085;28;20492;-58
2023/11/18 08:11:59;;;;;;;6.67;6.00;;;;;;;;;;5114173;28;21016;-58
2023/11/18 08:14:26;;;;;;;8.30;5.57;;;;;;;;;;5114718;28;21015;-58
2023/11/18 08:16:55;;;;;;;5.93;5.43;;;;;;;;;;5114776;28;20517;-58
2023/11/18 08:19:23;;;;;;;6.50;5.90;;;;;;;;;;5114771;28;20783;-58
2023/11/18 08:21:50;;;;;;;6.20;5.67;;;;;;;;;;5114648;28;20477;-59
2023/11/18 08:24:18;;;;;;;6.73;6.00;;;;;;;;;;5114927;28;20494;-58
2023/11/18 08:26:47;;;;;;;5.70;5.20;;;;;;;;;;5114719;28;20438;-58
2023/11/18 08:29:14;;;;;;;9.10;6.03;;;;;;;;;;5114573;28;20481;-58
2023/11/18 08:31:41;;;;;;;6.60;5.90;;;;;;;;;;5114658;28;20455;-58
2023/11/18 08:34:10;;;;;;;6.37;5.87;;;;;;;;;;5114365;28;20442;-58
2023/11/18 08:36:37;;;;;;;6.40;5.40;;;;;;;;;;5114643;28;20441;-58
2023/11/18 08:39:04;;;;;;;7.57;6.13;;;;;;;;;;5114386;28;20448;-58
2023/11/18 08:41:32;;;;;;;7.17;5.40;;;;;;;;;;5114445;28;20459;-58
2023/11/18 08:43:59;;;;;;;6.70;5.93;;;;;;;;;;5114380;28;20442;-58
2023/11/18 08:46:26;;;;;;;6.35;5.75;;;;;;;;;;5114074;28;21046;-59
2023/11/18 08:48:55;;;;;;;9.87;5.73;;;;;;;;;;5113944;28;20625;-57
2023/11/18 08:51:25;;;;;;;5.90;5.30;;;;;;;;;;5114141;28;20483;-58
2023/11/18 08:53:54;;;;;;;5.60;5.10;;;;;;;;;;5114018;28;20445;-58
2023/11/18 08:56:31;;;;;;;6.90;5.85;;;;;;;;;;5114117;28;20195;-56
2023/11/18 08:59:00;;;;;;;5.63;5.13;;;;;;;;;;5113952;28;20206;-58
2023/11/18 09:01:28;;;;;;;6.00;5.40;;;;;;;;;;5113982;28;20438;-58
2023/11/18 09:03:56;;;;;;;9.83;6.03;;;;;;;;;;5113575;28;20948;-58
2023/11/18 09:06:27;;;;;;;6.27;5.53;;;;;;;;;;5113880;28;20463;-58
2023/11/18 09:08:57;;;;;;;8.93;5.57;;;;;;;;;;5114078;28;20517;-58
2023/11/18 09:11:27;;;;;;;6.27;5.40;;;;;;;;;;5113711;28;20441;-58
2023/11/18 09:13:57;;;;;;;5.63;5.13;;;;;;;;;;5113545;28;20993;-57
2023/11/18 09:16:29;;;;;;;6.43;5.83;;;;;;;;;;5113738;28;20524;-58
2023/11/18 09:18:58;;;;;;;6.83;5.27;;;;;;;;;;5113617;28;20448;-58
2023/11/18 09:21:29;;;;;;;5.40;5.00;;;;;;;;;;5113406;28;20441;-58
2023/11/18 09:23:56;;;;;;;5.00;4.50;;;;;;;;;;5113625;28;20805;-58
2023/11/18 09:26:25;;;;;;;4.53;4.13;;;;;;;;;;5113488;28;20437;-58
2023/11/18 09:28:52;;;;;;;6.17;5.10;;;;;;;;;;5113616;28;20481;-58
2023/11/18 09:31:21;;;;;;;6.50;5.37;;;;;;;;;;5113747;28;20445;-58
2023/11/18 09:33:52;;;;;;;5.23;4.80;;;;;;;;;;5113577;28;20446;-58
2023/11/18 09:36:21;;;;;;;5.43;4.87;;;;;;;;;;5113506;28;20524;-58
2023/11/18 09:38:49;;;;;;;5.53;4.90;;;;;;;;;;5113374;28;20524;-58
2023/11/18 09:41:16;;;;;;;5.97;5.20;;;;;;;;;;5113501;28;20434;-58
2023/11/18 09:43:45;;;;;;;6.23;4.87;;;;;;;;;;5113567;28;20500;-59
2023/11/18 09:46:15;;;;;;;4.97;4.47;;;;;;;;;;5113475;28;20438;-58
2023/11/18 09:48:47;;;;;;;4.70;4.30;;;;;;;;;;5113035;28;20556;-58
2023/11/18 09:51:17;;;;;;;5.10;4.60;;;;;;;;;;5113303;28;20455;-58
2023/11/18 09:53:47;;;;;;;4.73;4.23;;;;;;;;;;5113555;28;20867;-58
2023/11/18 09:56:26;;;;;;;4.60;4.30;;;;;;;;;;5113357;28;20445;-58
2023/11/18 09:58:57;;;;;;;6.67;5.20;;;;;;;;;;5113311;28;20448;-57
2023/11/18 10:01:32;;;;;;;4.93;4.43;;;;;;;;;;5113141;28;20472;-58
2023/11/18 10:03:59;;;;;;;5.20;4.27;;;;;;;;;;5113092;28;20445;-58
2023/11/18 10:06:33;;;;;;;3.70;3.40;;;;;;;;;;5113305;28;20536;-58
2023/11/18 10:09:14;;;;;;;5.13;4.73;;;;;;;;;;5113212;28;20484;-58
2023/11/18 10:11:41;;;;;;;6.23;4.20;;;;;;;;;;5113029;28;20441;-59
2023/11/18 10:14:10;;;;;;;4.17;3.77;;;;;;;;;;5113041;28;20453;-59
2023/11/18 10:16:38;;;;;;;6.00;4.20;;;;;;;;;;5112994;28;21016;-58
2023/11/18 10:19:08;;;;;;;6.53;4.87;;;;;;;;;;5113127;28;20877;-58
2023/11/18 10:21:39;;;;;;;4.50;4.10;;;;;;;;;;5113078;28;20441;-58
2023/11/18 10:24:11;;;;;;;8.20;4.30;;;;;;;;;;5112994;28;20957;-58
2023/11/18 10:26:38;;;;;;;4.50;4.10;;;;;;;;;;5112834;28;20524;-58
2023/11/18 10:29:07;;;;;;;5.40;4.47;;;;;;;;;;5112995;28;20848;-58
2023/11/18 10:31:35;;;;;;;5.50;4.67;;;;;;;;;;5113068;28;20453;-58
2023/11/18 10:34:03;;;;;;;4.00;3.60;;;;;;;;;;5114241;28;20441;-58
2023/11/18 10:36:33;;;;;;;5.23;4.73;;;;;;;;;;5116851;28;20474;-58
2023/11/18 10:39:12;;;;;;;4.17;3.80;;;;;;;;;;5116623;28;20817;-58
2023/11/18 10:41:42;;;;;;;4.50;4.10;;;;;;;;;;5116899;28;20445;-58
2023/11/18 10:44:13;;;;;;;5.07;4.27;;;;;;;;;;5116779;28;20940;-58
2023/11/18 10:46:41;;;;;;;5.60;5.10;;;;;;;;;;5116525;28;20442;-58
2023/11/18 10:49:09;;;;;;;5.10;4.50;;;;;;;;;;5116391;28;20500;-58
2023/11/18 10:51:38;;;;;;;5.10;4.10;;;;;;;;;;5116486;28;20855;-58
2023/11/18 10:54:13;;;;;;;5.20;4.70;;;;;;;;;;5116586;28;20453;-58
2023/11/18 10:56:47;;;;;;;9.00;4.47;;;;;;;;;;5116403;28;20441;-58
2023/11/18 10:59:16;;;;;;;5.13;4.40;;;;;;;;;;5116354;28;21034;-58
2023/11/18 11:01:43;;;;;;;8.03;4.30;;;;;;;;;;5116390;28;20446;-58
2023/11/18 11:04:11;;;;;;;6.27;5.67;;;;;;;;;;5116134;28;20449;-58
2023/11/18 11:06:42;;;;;;;5.40;5.00;;;;;;;;;;5116449;28;20442;-58
2023/11/18 11:09:16;;;;;;;4.43;4.03;;;;;;;;;;5116214;28;20526;-58
2023/11/18 11:11:47;;;;;;;4.80;4.40;;;;;;;;;;5116292;28;20443;-58
2023/11/18 11:14:16;;;;;;;6.97;4.30;;;;;;;;;;5116136;28;20441;-59
2023/11/18 11:16:44;;;;;;;5.30;4.80;;;;;;;;;;5115952;28;20999;-58
2023/11/18 11:19:22;;;;;;;4.97;4.50;;;;;;;;;;5116152;28;20453;-58
2023/11/18 11:21:53;;;;;;;5.33;4.83;;;;;;;;;;5116210;28;20808;-59
2023/11/18 11:24:23;;;;;;;5.20;4.80;;;;;;;;;;5115793;28;20971;-58
2023/11/18 11:26:56;;;;;;;5.67;4.50;;;;;;;;;;5115868;28;20439;-58
2023/11/18 11:29:28;;;;;;;4.67;4.27;;;;;;;;;;5115531;28;20500;-58
2023/11/18 11:31:58;;;;;;;5.90;4.70;;;;;;;;;;5115931;28;20438;-59
2023/11/18 11:34:28;;;;;;;4.53;4.13;;;;;;;;;;5115755;28;20842;-58
2023/11/18 11:36:55;;;;;;;5.53;5.03;;;;;;;;;;5115620;28;20581;-58
2023/11/18 11:39:25;;;;;;;4.90;4.50;;;;;;;;;;5115511;28;20536;-58
2023/11/18 11:41:54;;;;;;;5.67;5.20;;;;;;;;;;5115357;28;20457;-58
2023/11/18 11:44:28;;;;;;;4.23;3.83;;;;;;;;;;5115526;28;20497;-58
2023/11/18 11:46:56;;;;;;;5.33;4.33;;;;;;;;;;5115460;28;20477;-58
2023/11/18 11:49:27;;;;;;;4.20;3.90;;;;;;;;;;5115403;28;20477;-59
2023/11/18 11:51:58;;;;;;;9.90;4.33;;;;;;;;;;5115373;28;20445;-58
2023/11/18 11:54:29;;;;;;;4.67;4.20;;;;;;;;;;5115530;28;20448;-58
2023/11/18 11:57:00;;;;;;;3.70;3.40;;;;;;;;;;5115406;28;20453;-58
2023/11/18 11:59:38;;;;;;;4.67;4.27;;;;;;;;;;5115229;28;20442;-58
2023/11/18 12:02:07;;;;;;;4.73;4.33;;;;;;;;;;5115136;28;20445;-58
2023/11/18 12:04:37;;;;;;;5.20;4.63;;;;;;;;;;5115047;28;20484;-58
2023/11/18 12:07:05;;;;;;;5.10;4.30;;;;;;;;;;5115240;28;20499;-58
2023/11/18 12:09:37;;;;;;;5.77;4.23;;;;;;;;;;5114901;28;20572;-58
2023/11/18 12:12:09;;;;;;;4.03;3.73;;;;;;;;;;5114965;28;20441;-58
2023/11/18 12:14:50;;;;;;;5.50;3.80;;;;;;;;;;5114985;28;20433;-59
2023/11/18 12:17:21;;;;;;;3.70;3.43;;;;;;;;;;5114981;28;20425;-59
2023/11/18 12:19:50;;;;;;;4.37;3.97;;;;;;;;;;5114911;28;20445;-58
2023/11/18 12:22:18;;;;;;;5.53;5.03;;;;;;;;;;5114835;28;20444;-59
2023/11/18 12:25:07;;;;;;;6.20;4.10;;;;;;;;;;5114830;28;20473;-58
2023/11/18 12:27:51;;;;;;;4.87;4.03;;;;;;;;;;5114366;28;20524;-58
2023/11/18 12:30:35;;;;;;;6.93;4.60;;;;;;;;;;5114697;28;20477;-58
2023/11/18 12:33:05;;;;;;;9.37;4.93;;;;;;;;;;5114435;28;20456;-59
2023/11/18 12:35:36;;;;;;;6.10;5.53;;;;;;;;;;5114624;28;20794;-58
2023/11/18 12:38:24;;;;;;;6.80;5.47;;;;;;;;;;5114500;28;20870;-58
2023/11/18 12:40:56;;;;;;;6.20;5.07;;;;;;;;;;5114507;28;20866;-58
2023/11/18 12:43:33;;;;;;;4.70;4.30;;;;;;;;;;5114306;28;20964;-58
2023/11/18 12:46:15;;;;;;;5.30;4.80;;;;;;;;;;5114302;28;20536;-58
2023/11/18 12:48:46;;;;;;;5.70;5.13;;;;;;;;;;5113947;28;20466;-58
2023/11/18 12:51:19;;;;;;;7.00;6.37;;;;;;;;;;5114354;28;20529;-58
2023/11/18 12:53:46;;;;;;;8.37;7.23;;;;;;;;;;5114254;28;20453;-58
2023/11/18 12:56:15;;;;;;;7.50;6.20;;;;;;;;;;5113754;28;20444;-58
2023/11/18 12:58:43;;;;;;;8.90;5.60;;;;;;;;;;5113952;28;20438;-59
2023/11/18 13:01:14;;;;;;;7.10;5.70;;;;;;;;;;5114166;28;20445;-58
2023/11/18 13:03:41;;;;;;;7.47;5.67;;;;;;;;;;5113969;28;20437;-58
2023/11/18 13:06:09;;;;;;;8.13;6.73;;;;;;;;;;5113906;28;20805;-58
2023/11/18 13:08:36;;;;;;;7.10;6.43;;;;;;;;;;5113720;28;20437;-58
2023/11/18 13:11:04;;;;;;;6.83;5.83;;;;;;;;;;5113764;28;20481;-58
2023/11/18 13:13:35;;;;;;;8.70;6.87;;;;;;;;;;5113589;28;20441;-58
2023/11/18 13:16:03;;;;;;;8.40;7.47;;;;;;;;;;5113879;28;20463;-58
2023/11/18 13:18:43;;;;;;;7.60;6.80;;;;;;;;;;5113681;28;20477;-58
2023/11/18 13:21:10;;;;;;;7.70;5.40;;;;;;;;;;5113816;28;20514;-58
2023/11/18 13:23:37;;;;;;;13.80;8.90;;;;;;;;;;5113587;28;20438;-59
2023/11/18 13:26:05;;;;;;;10.43;7.83;;;;;;;;;;5113601;28;20891;-58
2023/11/18 13:28:34;;;;;;;9.60;7.27;;;;;;;;;;5113726;28;20844;-58
2023/11/18 13:31:03;;;;;;;7.20;5.40;;;;;;;;;;5113633;28;20481;-58
2023/11/18 13:33:30;;;;;;;8.90;8.00;;;;;;;;;;5113585;28;20449;-58
2023/11/18 13:35:58;;;;;;;10.67;6.50;;;;;;;;;;5113422;28;20544;-59
2023/11/18 13:38:25;;;;;;;6.43;5.70;;;;;;;;;;5113392;28;20520;-58
2023/11/18 13:40:52;;;;;;;8.57;7.57;;;;;;;;;;5113367;28;21014;-59
2023/11/18 13:43:22;;;;;;;7.37;6.67;;;;;;;;;;5113454;28;20451;-59
2023/11/18 13:45:53;;;;;;;10.03;8.27;;;;;;;;;;5113422;28;20491;-58
2023/11/18 13:48:23;;;;;;;8.07;7.23;;;;;;;;;;5113180;28;20473;-58
2023/11/18 13:50:51;;;;;;;9.23;7.87;;;;;;;;;;5113137;28;20574;-59
2023/11/18 13:53:18;;;;;;;8.93;6.80;;;;;;;;;;5113346;28;20851;-58
2023/11/18 13:55:48;;;;;;;7.40;6.50;;;;;;;;;;5113199;28;20532;-58
2023/11/18 13:58:16;;;;;;;9.40;7.27;;;;;;;;;;5113201;28;20872;-59
2023/11/18 14:00:43;;;;;;;8.53;6.43;;;;;;;;;;5113275;28;20534;-58
2023/11/18 14:03:11;;;;;;;6.00;5.50;;;;;;;;;;5113235;28;20504;-58
2023/11/18 14:05:39;;;;;;;6.20;5.60;;;;;;;;;;5113261;28;20446;-58
2023/11/18 14:08:09;;;;;;;4.87;4.53;;;;;;;;;;5113241;28;20449;-58
2023/11/18 14:10:38;;;;;;;5.97;4.80;;;;;;;;;;5117222;28;20485;-58
2023/11/18 14:13:06;;;;;;;5.90;5.33;;;;;;;;;;5117273;28;20450;-58
2023/11/18 14:15:35;;;;;;;6.30;5.40;;;;;;;;;;5117098;28;20441;-58
2023/11/18 14:18:02;;;;;;;19.00;14.57;;;;;;;;;;5116914;28;20495;-58
2023/11/18 14:20:31;;;;;;;17.37;14.47;;;;;;;;;;5117072;28;20540;-58
2023/11/18 14:22:58;;;;;;;17.70;14.43;;;;;;;;;;5117203;28;20441;-58
2023/11/18 14:25:25;;;;;;;14.23;11.50;;;;;;;;;;5117222;28;20495;-59
2023/11/18 14:27:53;;;;;;;20.33;15.10;;;;;;;;;;5116870;28;20445;-58
2023/11/18 14:30:20;;;;;;;16.80;11.10;;;;;;;;;;5116751;28;20564;-60
2023/11/18 14:32:47;;;;;;;14.73;11.30;;;;;;;;;;5116977;28;20876;-58
2023/11/18 14:35:16;;;;;;;11.80;10.60;;;;;;;;;;5116895;28;20540;-58
2023/11/18 14:37:45;;;;;;;14.43;11.33;;;;;;;;;;5116774;28;20445;-59
2023/11/18 14:40:14;;;;;;;17.27;11.40;;;;;;;;;;5116807;28;20552;-59
2023/11/18 14:42:43;;;;;;;10.00;8.70;;;;;;;;;;5116705;28;20449;-59
2023/11/18 14:45:12;;;;;;;6.70;6.00;;;;;;;;;;5116581;28;20785;-59
2023/11/18 14:47:38;;;;;;;7.17;5.57;;;;;;;;;;5116495;28;20519;-58
2023/11/18 14:50:15;;;;;;;5.23;4.73;;;;;;;;;;5116663;28;20839;-58
2023/11/18 14:52:42;;;;;;;11.27;5.50;;;;;;;;;;5116661;28;21005;-58
2023/11/18 14:55:12;;;;;;;6.20;5.40;;;;;;;;;;5116197;28;20851;-58